Time;durP1;ratioP1;P1;durP2;ratioP2;P2;SDS_P1;SDS_P2;PMS_P1;PMS_P2;Temp;Humidity;BMP_temperature;BMP_pressure;BME280_temperature;BME280_humidity;BME280_pressure;Samples;Min_cycle;Max_cycle;Signal;HPM_P1;HPM_P2
2021/12/06 00:01:01;;;;;;;42.58;23.95;;;;;;;0.27;90.22;99495.84;1755602;81;25465;-71
2021/12/06 00:03:39;;;;;;;47.90;25.12;;;;;;;0.28;90.27;99500.11;1751245;81;25497;-71
2021/12/06 00:06:06;;;;;;;41.37;22.93;;;;;;;0.28;90.27;99499.32;1748040;81;25602;-71
2021/12/06 00:08:33;;;;;;;41.70;22.37;;;;;;;0.29;90.32;99507.04;1755479;81;27483;-70
2021/12/06 00:11:06;;;;;;;41.00;23.22;;;;;;;0.28;90.29;99508.09;1755387;81;25596;-70
2021/12/06 00:13:28;;;;;;;43.33;22.85;;;;;;;0.28;90.28;99508.63;1754562;81;25567;-70
2021/12/06 00:15:55;;;;;;;47.60;23.45;;;;;;;0.27;90.35;99511.80;1755437;81;26142;-70
2021/12/06 00:18:22;;;;;;;41.50;22.27;;;;;;;0.28;90.40;99509.95;1739409;80;25660;-70
2021/12/06 00:20:48;;;;;;;40.38;22.25;;;;;;;0.27;90.35;99515.00;1786025;80;28053;-70
2021/12/06 00:23:15;;;;;;;39.20;21.82;;;;;;;0.29;90.46;99512.87;1785974;80;25612;-70
2021/12/06 00:25:42;;;;;;;42.10;22.65;;;;;;;0.30;90.45;99518.47;1761533;80;25528;-71
2021/12/06 00:28:08;;;;;;;39.80;23.38;;;;;;;0.31;90.45;99522.75;1786013;80;26055;-71
2021/12/06 00:30:35;;;;;;;42.62;23.05;;;;;;;0.32;90.52;99523.00;1786072;80;25540;-71
2021/12/06 00:33:02;;;;;;;42.10;22.22;;;;;;;0.33;90.51;99526.73;1786034;80;27449;-71
2021/12/06 00:35:29;;;;;;;42.58;22.85;;;;;;;0.33;90.49;99524.08;1785921;80;25518;-71
2021/12/06 00:38:01;;;;;;;36.95;21.20;;;;;;;0.33;90.44;99524.61;1786027;79;25399;-71
2021/12/06 00:40:43;;;;;;;42.85;22.70;;;;;;;0.34;90.44;99520.87;1784526;80;26044;-71
2021/12/06 00:43:12;;;;;;;39.05;20.95;;;;;;;0.34;90.47;99522.20;1786159;80;25526;-71
2021/12/06 00:45:39;;;;;;;40.53;21.30;;;;;;;0.34;90.39;99521.70;1786285;80;27517;-71
2021/12/06 00:48:06;;;;;;;39.08;21.35;;;;;;;0.35;90.43;99525.94;1785956;80;25428;-71
2021/12/06 00:50:38;;;;;;;41.10;21.05;;;;;;;0.34;90.47;99527.02;1786032;80;25425;-71
2021/12/06 00:53:06;;;;;;;40.60;21.77;;;;;;;0.35;90.48;99532.59;1786005;80;25464;-71
2021/12/06 00:55:34;;;;;;;39.33;20.37;;;;;;;0.35;90.38;99527.27;1785963;80;25585;-71
2021/12/06 00:58:01;;;;;;;37.93;21.17;;;;;;;0.35;90.39;99527.80;1786022;80;27445;-71
2021/12/06 01:00:35;;;;;;;40.45;21.35;;;;;;;0.34;90.44;99527.52;1785909;79;25880;-72
2021/12/06 01:03:16;;;;;;;38.45;20.72;;;;;;;0.34;90.47;99528.86;1780364;80;25431;-72
2021/12/06 01:05:43;;;;;;;38.65;20.20;;;;;;;0.32;90.45;99529.14;1786013;80;25541;-71
2021/12/06 01:08:10;;;;;;;37.88;20.72;;;;;;;0.32;90.50;99532.31;1786033;80;25617;-71
2021/12/06 01:10:39;;;;;;;39.23;19.95;;;;;;;0.33;90.52;99545.36;1785993;80;27480;-71
2021/12/06 01:13:06;;;;;;;39.00;19.65;;;;;;;0.34;90.57;99544.31;1786092;80;25190;-71
2021/12/06 01:15:37;;;;;;;37.67;20.17;;;;;;;0.34;90.56;99546.97;1786005;80;25607;-71
2021/12/06 01:18:07;;;;;;;37.83;20.35;;;;;;;0.34;90.55;99544.31;1785912;80;25478;-71
2021/12/06 01:20:42;;;;;;;37.78;19.67;;;;;;;0.34;90.55;99537.66;1785492;80;25393;-71
2021/12/06 01:23:08;;;;;;;37.25;20.00;;;;;;;0.36;90.57;99530.75;1784545;80;27460;-71
2021/12/06 01:28:47;;;;;;;36.42;20.43;;;;;;;0.38;90.52;99534.48;1785490;80;25399;-71
2021/12/06 01:31:03;;;;;;;39.18;19.87;;;;;;;0.36;90.58;99530.21;1781397;80;25662;-71
2021/12/06 01:33:35;;;;;;;35.13;19.60;;;;;;;0.38;90.57;99531.28;1783884;80;25599;-72
2021/12/06 01:41:34;;;;;;;34.33;19.67;;;;;;;0.36;90.50;99532.08;1758936;80;25463;-71
2021/12/06 01:44:15;;;;;;;34.53;20.27;;;;;;;0.35;90.54;99532.59;1785486;80;34779;-71
2021/12/06 01:46:49;;;;;;;33.67;20.10;;;;;;;0.33;90.50;99539.25;1785471;80;25698;-69
2021/12/06 01:49:19;;;;;;;37.55;19.02;;;;;;;0.32;90.51;99533.64;1785453;80;27530;-71
2021/12/06 01:51:46;;;;;;;;;;;;;;;0.32;90.60;99544.28;1787945;80;25830;-70
2021/12/06 01:54:18;;;;;;;37.98;21.10;;;;;;;0.32;90.65;99541.63;1785008;80;25558;-70
2021/12/06 01:56:49;;;;;;;36.75;19.90;;;;;;;0.32;90.71;99546.94;1785373;80;26036;-70
2021/12/06 01:59:15;;;;;;;35.40;19.10;;;;;;;0.32;90.73;99557.08;1785444;80;25381;-70
2021/12/06 02:01:43;;;;;;;33.83;19.05;;;;;;;0.32;90.78;99560.25;1785432;79;27516;-71
2021/12/06 02:04:10;;;;;;;33.55;19.73;;;;;;;0.33;90.78;99556.00;1785287;79;25559;-70
2021/12/06 02:06:39;;;;;;;35.52;18.98;;;;;;;0.34;90.83;99561.59;1785405;80;25448;-70
2021/12/06 02:09:10;;;;;;;32.48;18.87;;;;;;;0.34;90.78;99559.45;1785385;80;25572;-70
2021/12/06 02:11:38;;;;;;;37.00;19.57;;;;;;;0.35;90.80;99565.05;1785408;80;25570;-71
2021/12/06 02:16:53;;;;;;;34.15;19.42;;;;;;;0.38;90.84;99559.76;1785447;80;25616;-70
2021/12/06 02:19:05;;;;;;;34.75;19.02;;;;;;;0.39;90.83;99565.33;1781192;80;25403;-70
2021/12/06 02:21:37;;;;;;;34.43;18.32;;;;;;;0.40;90.83;99569.06;1758958;80;25524;-70
2021/12/06 02:24:09;;;;;;;34.58;18.62;;;;;;;0.43;90.80;99566.44;1785426;80;25384;-70
2021/12/06 02:26:36;;;;;;;31.90;18.07;;;;;;;0.44;90.79;99572.01;1784945;80;27579;-70
2021/12/06 02:29:04;;;;;;;34.43;19.15;;;;;;;0.44;90.77;99572.01;1734292;80;25887;-70
2021/12/06 02:31:32;;;;;;;33.73;19.42;;;;;;;0.46;90.76;99572.54;1785440;80;25400;-70
2021/12/06 02:33:58;;;;;;;31.62;18.30;;;;;;;0.45;90.75;99574.41;1785320;80;25467;-70
2021/12/06 02:36:26;;;;;;;31.93;17.90;;;;;;;0.46;90.72;99574.70;1785422;80;25618;-70
2021/12/06 02:38:54;;;;;;;31.07;18.05;;;;;;;0.47;90.73;99576.28;1785374;80;28089;-70
2021/12/06 02:41:21;;;;;;;31.97;17.57;;;;;;;0.48;90.70;99577.10;1785320;80;25820;-70
2021/12/06 02:43:50;;;;;;;30.15;17.50;;;;;;;0.49;90.66;99580.02;1785417;79;25601;-71
2021/12/06 02:46:17;;;;;;;32.33;17.75;;;;;;;0.50;90.66;99581.63;1785493;80;26057;-71
2021/12/06 02:48:44;;;;;;;30.50;16.57;;;;;;;0.49;90.63;99582.14;1785438;80;25568;-71
2021/12/06 02:51:14;;;;;;;25.85;16.87;;;;;;;0.51;90.62;99580.04;1785386;80;27464;-71
2021/12/06 02:53:41;;;;;;;34.03;18.75;;;;;;;0.51;90.61;99575.23;1785297;80;25666;-71
2021/12/06 02:56:28;;;;;;;29.80;18.07;;;;;;;0.51;90.65;99581.37;1785343;80;25614;-71
2021/12/06 03:01:19;;;;;;;29.92;17.82;;;;;;;0.50;90.57;99575.77;1785397;80;25369;-71
2021/12/06 03:03:46;;;;;;;31.05;18.05;;;;;;;0.50;90.68;99576.30;1785486;80;27550;-71
2021/12/06 03:06:14;;;;;;;27.32;16.62;;;;;;;0.52;90.70;99575.51;1785307;80;25582;-71
2021/12/06 03:08:58;;;;;;;29.55;16.45;;;;;;;0.52;90.70;99574.17;1785409;80;25476;-71
2021/12/06 03:11:42;;;;;;;27.27;15.13;;;;;;;0.52;90.69;99566.20;1784785;80;26125;-70
2021/12/06 03:14:12;;;;;;;26.85;16.12;;;;;;;0.53;90.67;99565.94;1785417;80;25539;-70
2021/12/06 03:16:40;;;;;;;25.92;16.75;;;;;;;0.51;90.57;99565.41;1758900;80;27424;-71
2021/12/06 03:19:09;;;;;;;29.27;17.10;;;;;;;0.49;90.56;99566.17;1780295;80;25563;-71
2021/12/06 03:21:36;;;;;;;29.48;16.95;;;;;;;0.49;90.58;99562.17;1763610;81;25442;-71
2021/12/06 03:24:04;;;;;;;25.02;15.55;;;;;;;0.49;90.61;99569.37;1763536;81;25477;-71
2021/12/06 03:26:33;;;;;;;30.95;17.73;;;;;;;0.48;90.59;99570.45;1763609;81;25408;-71
2021/12/06 03:29:00;;;;;;;28.38;15.18;;;;;;;0.47;90.63;99571.50;1763740;81;28196;-71
2021/12/06 03:31:28;;;;;;;29.52;16.48;;;;;;;0.47;90.69;99575.48;1733335;81;25560;-71
2021/12/06 03:33:57;;;;;;;27.07;15.30;;;;;;;0.47;90.72;99571.50;1763580;81;25468;-71
2021/12/06 03:36:27;;;;;;;29.43;15.97;;;;;;;0.47;90.66;99572.28;1763806;81;25488;-71
2021/12/06 03:38:56;;;;;;;30.32;17.17;;;;;;;0.47;90.68;99580.81;1763660;81;25572;-71
2021/12/06 03:41:25;;;;;;;27.80;15.18;;;;;;;0.46;90.67;99582.67;1763700;81;28048;-71
2021/12/06 03:43:53;;;;;;;26.50;15.80;;;;;;;0.47;90.68;99588.80;1763647;81;25470;-71
2021/12/06 03:46:22;;;;;;;28.50;16.12;;;;;;;0.46;90.70;99581.34;1763582;81;25415;-71
2021/12/06 03:48:48;;;;;;;27.73;15.63;;;;;;;0.47;90.72;99588.80;1763801;81;25467;-71
2021/12/06 03:51:17;;;;;;;30.65;17.10;;;;;;;0.47;90.73;99591.45;1763631;81;25592;-71
2021/12/06 03:53:44;;;;;;;29.12;16.65;;;;;;;0.47;90.71;99593.58;1763563;81;27441;-71
2021/12/06 03:56:13;;;;;;;27.10;15.28;;;;;;;0.47;90.64;99590.91;1763445;81;25678;-71
2021/12/06 03:58:40;;;;;;;29.48;16.30;;;;;;;0.47;90.63;99597.56;1733270;81;25470;-71
2021/12/06 04:01:06;;;;;;;27.20;15.45;;;;;;;0.47;90.64;99598.11;1763542;81;25596;-71
2021/12/06 04:03:36;;;;;;;27.37;16.67;;;;;;;0.46;90.62;99601.81;1763591;81;25485;-71
2021/12/06 04:06:04;;;;;;;;;;;;;;;0.45;90.61;99597.03;1766179;81;27550;-71
2021/12/06 04:08:31;;;;;;;31.73;16.00;;;;;;;0.44;90.51;99597.28;1763471;81;25622;-71
2021/12/06 04:10:57;;;;;;;29.12;15.78;;;;;;;0.40;90.45;99602.33;1763584;81;25409;-71
2021/12/06 04:13:24;;;;;;;31.07;17.35;;;;;;;0.38;90.57;99601.79;1763528;81;25476;-71
2021/12/06 04:15:51;;;;;;;34.50;17.50;;;;;;;0.40;90.65;99606.86;1763569;81;25598;-71
2021/12/06 04:18:17;;;;;;;34.20;19.25;;;;;;;0.35;90.58;99605.75;1763546;81;27435;-71
2021/12/06 04:20:45;;;;;;;31.50;16.85;;;;;;;0.34;90.51;99612.66;1757288;80;25723;-71
2021/12/06 04:23:12;;;;;;;29.07;17.10;;;;;;;0.33;90.60;99615.06;1755470;81;25404;-71
2021/12/06 04:25:40;;;;;;;34.48;18.30;;;;;;;0.32;90.60;99617.44;1755438;81;26206;-71
2021/12/06 04:28:09;;;;;;;33.50;18.42;;;;;;;0.30;90.52;99623.55;1755507;81;25610;-70
2021/12/06 04:30:38;;;;;;;29.57;17.17;;;;;;;0.28;90.54;99630.45;1755625;81;28107;-70
2021/12/06 04:33:06;;;;;;;30.57;17.87;;;;;;;0.27;90.49;99634.16;1755492;81;25727;-70
2021/12/06 04:35:35;;;;;;;33.80;18.42;;;;;;;0.27;90.58;99635.49;1755430;81;25228;-70
2021/12/06 04:38:03;;;;;;;32.67;18.47;;;;;;;0.27;90.62;99638.69;1755694;81;25472;-70
2021/12/06 04:40:29;;;;;;;28.02;15.72;;;;;;;0.27;90.64;99636.03;1755486;81;25644;-70
2021/12/06 04:42:57;;;;;;;31.95;16.40;;;;;;;0.28;90.70;99646.42;1755475;81;27439;-70
2021/12/06 04:45:25;;;;;;;35.05;18.15;;;;;;;0.29;90.69;99649.87;1729586;81;25639;-70
2021/12/06 04:47:52;;;;;;;33.05;16.75;;;;;;;0.28;90.65;99654.94;1755444;81;25614;-71
2021/12/06 04:50:24;;;;;;;32.25;17.48;;;;;;;0.26;90.50;99661.84;1755442;81;26012;-71
2021/12/06 04:52:54;;;;;;;32.53;17.75;;;;;;;0.25;90.55;99674.86;1755510;81;25567;-70
2021/12/06 04:55:32;;;;;;;31.75;17.70;;;;;;;0.26;90.59;99683.66;1755429;81;28169;-70
2021/12/06 04:58:00;;;;;;;32.25;17.67;;;;;;;0.24;90.63;99683.91;1755032;81;25544;-70
2021/12/06 05:00:48;;;;;;;34.45;18.37;;;;;;;0.26;90.74;99683.13;1755474;81;25402;-69
2021/12/06 05:03:17;;;;;;;35.23;19.17;;;;;;;0.27;90.75;99686.04;1755522;81;25669;-69
2021/12/06 05:05:55;;;;;;;35.65;19.00;;;;;;;0.28;90.79;99693.52;1729797;81;25643;-70
2021/12/06 05:08:27;;;;;;;33.10;18.73;;;;;;;0.28;90.80;99696.17;1755559;81;27583;-70
2021/12/06 05:10:57;;;;;;;35.50;19.12;;;;;;;0.25;90.74;99699.34;1755313;81;25611;-70
2021/12/06 05:13:24;;;;;;;;;;;;;;;0.28;90.79;99700.16;1758060;81;25449;-70
2021/12/06 05:15:51;;;;;;;37.58;20.10;;;;;;;0.29;90.74;99703.91;1729604;81;25608;-71
2021/12/06 05:18:18;;;;;;;36.23;19.05;;;;;;;0.26;90.64;99699.62;1755545;81;25587;-70
2021/12/06 05:20:47;;;;;;;38.38;19.65;;;;;;;0.23;90.56;99695.59;1760093;80;28258;-70
2021/12/06 05:23:14;;;;;;;38.60;19.15;;;;;;;0.22;90.57;99696.64;1763444;81;25388;-70
2021/12/06 05:25:40;;;;;;;32.48;18.48;;;;;;;0.18;90.55;99692.36;1763481;81;25401;-70
2021/12/06 05:28:07;;;;;;;36.83;19.95;;;;;;;0.18;90.58;99695.02;1763495;81;26070;-71
2021/12/06 05:30:36;;;;;;;39.38;20.15;;;;;;;0.17;90.71;99688.12;1763556;81;25396;-71
2021/12/06 05:33:04;;;;;;;39.40;20.07;;;;;;;0.16;90.70;99685.71;1763850;81;27259;-71
2021/12/06 05:35:31;;;;;;;37.95;20.20;;;;;;;0.14;90.68;99680.64;1763412;81;25970;-71
2021/12/06 05:38:00;;;;;;;38.08;20.00;;;;;;;0.15;90.71;99674.78;1763515;81;25404;-71
2021/12/06 05:40:32;;;;;;;41.42;20.85;;;;;;;0.13;90.73;99668.39;1763610;81;25551;-71
2021/12/06 05:43:02;;;;;;;38.02;19.80;;;;;;;0.14;90.81;99665.22;1763549;81;25562;-71
2021/12/06 05:45:32;;;;;;;35.05;20.30;;;;;;;0.15;90.85;99669.47;1763502;81;27468;-71
2021/12/06 05:47:58;;;;;;;39.13;20.82;;;;;;;0.15;90.83;99669.47;1763536;81;25392;-71
2021/12/06 05:50:26;;;;;;;39.55;20.40;;;;;;;0.13;90.77;99671.59;1733290;81;25512;-71
2021/12/06 05:52:55;;;;;;;39.03;20.08;;;;;;;0.13;90.83;99668.92;1763501;81;25565;-70
2021/12/06 05:55:24;;;;;;;;;;;;;;;0.15;90.89;99670.80;1766079;81;25788;-70
2021/12/06 05:57:51;;;;;;;38.83;19.63;;;;;;;0.14;90.86;99666.55;1763758;81;27561;-71
2021/12/06 06:00:21;;;;;;;42.00;22.13;;;;;;;0.12;90.88;99660.16;1763403;81;25641;-70
2021/12/06 06:02:49;;;;;;;42.17;21.55;;;;;;;0.11;90.80;99658.54;1763643;81;25548;-70
2021/12/06 06:05:18;;;;;;;39.45;20.72;;;;;;;0.09;90.79;99662.52;1763418;81;25487;-70
2021/12/06 06:07:45;;;;;;;42.45;20.90;;;;;;;0.08;90.82;99650.27;1763663;81;33122;-71
2021/12/06 06:10:12;;;;;;;43.35;21.73;;;;;;;0.05;90.82;99659.58;1733293;81;27343;-70
2021/12/06 06:12:39;;;;;;;43.45;21.45;;;;;;;0.04;90.80;99663.81;1763420;81;25479;-71
2021/12/06 06:15:07;;;;;;;46.05;21.33;;;;;;;0.01;90.88;99657.13;1763444;81;25528;-71
2021/12/06 06:17:41;;;;;;;43.58;22.75;;;;;;;-0.02;90.94;99655.80;1763435;81;26023;-71
2021/12/06 06:20:06;;;;;;;45.25;22.45;;;;;;;-0.01;91.08;99657.39;1732600;81;25571;-71
2021/12/06 06:22:32;;;;;;;43.15;22.30;;;;;;;-0.02;91.09;99662.45;1763576;80;28208;-69
2021/12/06 06:24:59;;;;;;;42.58;22.48;;;;;;;-0.03;91.12;99667.48;1763410;81;25614;-71
2021/12/06 06:27:26;;;;;;;45.35;21.90;;;;;;;-0.04;91.09;99669.85;1763491;81;25543;-70
2021/12/06 06:29:52;;;;;;;44.67;21.95;;;;;;;-0.03;91.17;99679.98;1763458;81;25488;-70
2021/12/06 06:32:19;;;;;;;41.98;21.15;;;;;;;-0.05;91.21;99682.89;1763503;81;25625;-71
2021/12/06 06:34:46;;;;;;;44.00;21.87;;;;;;;-0.06;91.21;99686.59;1763447;81;27003;-71
2021/12/06 06:37:12;;;;;;;45.92;21.95;;;;;;;-0.04;91.23;99702.30;1733101;81;25567;-71
2021/12/06 06:39:39;;;;;;;45.23;20.92;;;;;;;-0.04;91.21;99700.43;1763479;81;25373;-70
2021/12/06 06:42:06;;;;;;;45.92;22.15;;;;;;;-0.05;91.21;99708.16;1763169;81;25528;-71
2021/12/06 06:44:33;;;;;;;44.53;21.60;;;;;;;-0.04;91.16;99711.60;1763489;81;25436;-72
2021/12/06 06:47:00;;;;;;;49.85;23.45;;;;;;;-0.09;91.08;99715.55;1763454;81;27516;-71
2021/12/06 06:49:30;;;;;;;46.40;22.20;;;;;;;-0.12;91.10;99722.69;1763444;81;25618;-71
2021/12/06 06:51:55;;;;;;;48.95;23.22;;;;;;;-0.12;91.21;99728.83;1763006;81;25401;-72
2021/12/06 06:54:21;;;;;;;47.60;23.80;;;;;;;-0.10;91.36;99745.33;1763303;81;25615;-71
2021/12/06 06:56:48;;;;;;;46.55;21.62;;;;;;;-0.08;91.34;99751.72;1763238;81;25390;-71
2021/12/06 06:59:14;;;;;;;47.93;23.32;;;;;;;-0.08;91.33;99755.17;1763656;81;28010;-71
2021/12/06 07:01:41;;;;;;;48.78;23.18;;;;;;;-0.09;91.17;99767.39;1763534;81;25525;-71
2021/12/06 07:04:08;;;;;;;55.45;25.57;;;;;;;-0.09;91.23;99772.70;1763668;81;25534;-72
2021/12/06 07:06:35;;;;;;;55.70;24.95;;;;;;;-0.12;91.16;99769.21;1763609;81;25464;-72
2021/12/06 07:09:01;;;;;;;51.45;23.75;;;;;;;-0.12;91.17;99774.53;1763702;81;25477;-72
2021/12/06 07:11:28;;;;;;;48.63;24.12;;;;;;;-0.11;91.37;99768.97;1763614;81;27490;-71
2021/12/06 07:13:56;;;;;;;54.00;24.90;;;;;;;-0.09;91.53;99766.86;1763542;81;25380;-71
2021/12/06 07:16:26;;;;;;;48.78;23.47;;;;;;;-0.08;91.50;99763.16;1763580;81;25420;-72
2021/12/06 07:18:53;;;;;;;53.30;24.05;;;;;;;-0.06;91.40;99753.59;1763734;81;25617;-72
2021/12/06 07:21:19;;;;;;;53.50;24.30;;;;;;;-0.07;91.40;99747.48;1761860;80;25705;-71
2021/12/06 07:23:48;;;;;;;56.08;25.27;;;;;;;-0.08;91.31;99747.20;1755638;81;27550;-72
2021/12/06 07:26:18;;;;;;;54.98;24.37;;;;;;;-0.08;91.26;99747.20;1755406;81;25674;-72
2021/12/06 07:28:47;;;;;;;50.70;23.87;;;;;;;-0.07;91.33;99748.00;1755512;81;25623;-71
2021/12/06 07:31:14;;;;;;;52.60;25.02;;;;;;;-0.07;91.37;99747.48;1755645;81;25535;-71
2021/12/06 07:33:48;;;;;;;53.23;23.95;;;;;;;-0.05;91.35;99749.87;1755633;81;25381;-72
2021/12/06 07:36:15;;;;;;;56.60;27.05;;;;;;;-0.05;91.40;99748.03;1755516;81;27467;-71
2021/12/06 07:38:42;;;;;;;54.67;25.80;;;;;;;-0.03;91.46;99752.56;1755465;81;25945;-71
2021/12/06 07:41:13;;;;;;;53.48;25.88;;;;;;;-0.03;91.38;99756.55;1755537;81;25614;-72
2021/12/06 07:43:39;;;;;;;55.03;24.77;;;;;;;-0.03;91.27;99757.88;1755517;81;25472;-71
2021/12/06 07:46:08;;;;;;;58.42;25.50;;;;;;;-0.02;91.33;99752.03;1755551;81;25446;-72
2021/12/06 07:48:36;;;;;;;59.03;25.77;;;;;;;-0.02;91.33;99746.20;1705939;81;28042;-72
2021/12/06 07:51:05;;;;;;;60.75;27.55;;;;;;;0.01;91.46;99749.41;1755414;81;25551;-71
2021/12/06 07:53:34;;;;;;;75.20;31.00;;;;;;;0.02;91.55;99758.47;1755714;81;25389;-72
2021/12/06 07:56:02;;;;;;;;;;;;;;;0.04;91.57;99766.20;1758072;81;25597;-70
2021/12/06 07:58:28;;;;;;;63.73;28.35;;;;;;;0.05;91.49;99767.78;1755492;81;25447;-71
2021/12/06 08:00:55;;;;;;;60.50;26.48;;;;;;;0.03;91.42;99767.23;1755469;81;27445;-71
2021/12/06 08:03:26;;;;;;;64.25;27.65;;;;;;;0.04;91.34;99771.52;1755406;81;25390;-71
2021/12/06 08:05:53;;;;;;;57.80;27.15;;;;;;;0.04;91.30;99767.52;1755463;81;25415;-71
2021/12/06 08:08:24;;;;;;;43.83;20.57;;;;;;;0.05;91.23;99774.43;1755716;81;25661;-72
2021/12/06 08:11:06;;;;;;;60.90;27.93;;;;;;;0.03;91.15;99772.55;1755522;81;25397;-71
2021/12/06 08:13:35;;;;;;;61.83;26.35;;;;;;;0.04;91.20;99771.52;1755534;81;28184;-71
2021/12/06 08:16:10;;;;;;;57.70;27.53;;;;;;;0.05;91.28;99769.11;1755627;81;25644;-71
2021/12/06 08:18:37;;;;;;;63.00;27.00;;;;;;;0.03;91.29;99764.05;1755507;81;25581;-71
2021/12/06 08:21:05;;;;;;;61.02;26.93;;;;;;;0.04;91.19;99770.98;1755427;81;26038;-71
2021/12/06 08:23:32;;;;;;;61.37;28.05;;;;;;;0.05;91.18;99775.26;1763474;80;25408;-71
2021/12/06 08:26:00;;;;;;;68.15;31.17;;;;;;;0.05;91.04;99782.41;1763563;81;28069;-71
2021/12/06 08:28:28;;;;;;;68.12;27.95;;;;;;;0.04;91.03;99787.47;1763463;81;25598;-71
2021/12/06 08:30:55;;;;;;;67.90;28.95;;;;;;;0.03;91.06;99799.15;1763555;81;25555;-72
2021/12/06 08:33:22;;;;;;;61.28;26.75;;;;;;;0.02;91.01;99799.69;1733489;81;25487;-71
2021/12/06 08:35:52;;;;;;;61.70;27.02;;;;;;;0.01;91.05;99801.27;1733394;81;25472;-71
2021/12/06 08:38:23;;;;;;;67.35;29.72;;;;;;;0.02;91.08;99808.17;1763563;81;27468;-72
2021/12/06 08:40:51;;;;;;;64.72;28.95;;;;;;;0.02;91.14;99802.84;1763474;81;25554;-71
2021/12/06 08:43:20;;;;;;;70.78;30.52;;;;;;;0.02;91.09;99820.95;1763559;81;25599;-71
2021/12/06 08:45:54;;;;;;;69.70;30.08;;;;;;;0.01;91.10;99815.35;1763517;81;25578;-72
2021/12/06 08:48:24;;;;;;;73.35;30.17;;;;;;;0.00;91.12;99819.08;1763580;81;25605;-72
2021/12/06 08:50:54;;;;;;;73.62;30.35;;;;;;;0.02;91.13;99829.44;1763568;81;28346;-71
2021/12/06 08:53:24;;;;;;;74.58;30.65;;;;;;;0.03;91.13;99827.07;1763457;81;25720;-71
2021/12/06 08:55:53;;;;;;;68.47;29.63;;;;;;;0.02;91.08;99823.62;1763503;81;25591;-71
2021/12/06 08:58:20;;;;;;;66.87;28.67;;;;;;;0.02;91.10;99831.59;1763499;81;25570;-71
2021/12/06 09:00:47;;;;;;;71.10;30.40;;;;;;;0.02;91.01;99838.75;1763577;81;25631;-71
2021/12/06 09:03:14;;;;;;;65.28;27.73;;;;;;;-0.01;91.03;99836.08;1763547;81;28169;-72
2021/12/06 09:05:46;;;;;;;60.38;27.37;;;;;;;0.01;91.02;99842.48;1763445;81;25696;-71
2021/12/06 09:08:13;;;;;;;68.07;29.65;;;;;;;0.01;90.91;99843.81;1763572;81;25617;-71
2021/12/06 09:10:40;;;;;;;66.47;29.12;;;;;;;0.01;90.86;99845.14;1763496;81;25577;-72
2021/12/06 09:13:07;;;;;;;62.53;27.90;;;;;;;-0.01;90.84;99844.05;1763580;81;25527;-71
2021/12/06 09:15:35;;;;;;;64.32;28.35;;;;;;;-0.03;90.65;99843.51;1763456;81;27476;-72
2021/12/06 09:18:02;;;;;;;70.72;30.05;;;;;;;-0.05;90.61;99842.93;1763426;81;25861;-72
2021/12/06 09:20:34;;;;;;;64.07;28.60;;;;;;;-0.09;90.49;99842.63;1763517;81;25473;-71
2021/12/06 09:23:02;;;;;;;63.00;29.20;;;;;;;-0.10;90.65;99845.53;1757503;80;25570;-72
2021/12/06 09:25:30;;;;;;;64.07;28.85;;;;;;;-0.10;90.74;99844.20;1755447;81;25586;-72
2021/12/06 09:27:57;;;;;;;64.12;28.80;;;;;;;-0.11;90.76;99840.75;1755423;81;27538;-72
2021/12/06 09:30:27;;;;;;;65.60;29.32;;;;;;;-0.13;90.75;99842.06;1755334;81;25468;-72
2021/12/06 09:32:56;;;;;;;63.15;28.55;;;;;;;-0.13;90.74;99841.53;1755447;81;25610;-72
2021/12/06 09:35:26;;;;;;;61.70;28.87;;;;;;;-0.13;90.75;99841.53;1755466;81;25518;-72
2021/12/06 09:37:54;;;;;;;58.30;27.82;;;;;;;-0.13;90.78;99842.86;1755225;81;25464;-73
2021/12/06 09:40:22;;;;;;;68.33;28.57;;;;;;;-0.14;90.77;99837.79;1755542;81;28103;-72
2021/12/06 09:42:51;;;;;;;62.50;29.00;;;;;;;-0.14;90.66;99834.59;1755316;81;25471;-71
2021/12/06 09:45:23;;;;;;;65.62;29.57;;;;;;;-0.13;90.79;99834.89;1755666;81;25397;-72
2021/12/06 09:47:53;;;;;;;65.08;28.38;;;;;;;-0.12;90.78;99839.16;1755246;81;25546;-71
2021/12/06 09:50:27;;;;;;;61.23;27.73;;;;;;;-0.10;90.79;99850.85;1755588;81;25436;-71
2021/12/06 09:52:59;;;;;;;61.18;29.07;;;;;;;-0.10;90.78;99841.04;1754751;81;27452;-71
2021/12/06 09:55:29;;;;;;;57.55;26.50;;;;;;;-0.08;90.83;99844.78;1755352;81;25546;-72
2021/12/06 09:57:57;;;;;;;59.45;27.40;;;;;;;-0.09;90.69;99833.86;1755431;81;25438;-71
2021/12/06 10:00:28;;;;;;;56.58;27.32;;;;;;;-0.08;90.69;99827.50;1755364;81;25582;-71
2021/12/06 10:02:55;;;;;;;66.57;29.90;;;;;;;-0.10;90.73;99817.62;1755504;81;25382;-71
2021/12/06 10:05:29;;;;;;;60.08;27.98;;;;;;;-0.08;90.76;99825.63;1755408;81;27612;-71
2021/12/06 10:07:58;;;;;;;64.00;28.57;;;;;;;-0.07;90.75;99821.11;1729349;81;25706;-71
2021/12/06 10:10:27;;;;;;;60.88;28.45;;;;;;;-0.07;90.78;99819.28;1755459;81;25397;-71
2021/12/06 10:12:55;;;;;;;59.33;27.15;;;;;;;-0.07;90.71;99809.14;1755512;81;25493;-71
2021/12/06 10:15:27;;;;;;;66.07;29.65;;;;;;;-0.05;90.69;99826.98;1755429;81;25402;-71
2021/12/06 10:18:01;;;;;;;61.20;28.73;;;;;;;-0.07;90.48;99831.24;1742800;81;27467;-71
2021/12/06 10:20:31;;;;;;;61.08;28.85;;;;;;;-0.08;90.44;99834.94;1741831;81;25552;-70
2021/12/06 10:23:00;;;;;;;64.37;28.98;;;;;;;-0.08;90.54;99833.61;1753635;80;25649;-70
2021/12/06 10:25:39;;;;;;;;;;;;;;;-0.06;90.63;99836.02;1732552;83;25783;-71
2021/12/06 10:28:06;;;;;;;61.35;27.22;;;;;;;-0.04;90.74;99832.05;1762023;81;25394;-72
2021/12/06 10:30:41;;;;;;;62.78;28.73;;;;;;;-0.06;90.58;99836.81;1761956;81;27543;-72
2021/12/06 10:33:16;;;;;;;66.45;28.75;;;;;;;-0.05;90.53;99835.78;1732922;81;25665;-70
2021/12/06 10:35:50;;;;;;;64.40;28.00;;;;;;;-0.04;90.48;99837.91;1762008;81;25393;-70
2021/12/06 10:38:24;;;;;;;67.17;30.08;;;;;;;-0.06;90.39;99837.36;1762008;81;25568;-71
2021/12/06 10:40:59;;;;;;;66.67;29.35;;;;;;;-0.07;90.24;99836.56;1760587;80;25614;-71
2021/12/06 10:43:27;;;;;;;66.07;29.12;;;;;;;-0.09;90.40;99839.17;1761471;81;27503;-71
2021/12/06 10:45:56;;;;;;;65.60;28.52;;;;;;;-0.06;90.40;99840.02;1761931;81;25517;-71
2021/12/06 10:48:27;;;;;;;66.35;28.83;;;;;;;-0.05;90.41;99842.42;1681223;82;25617;-72
2021/12/06 10:50:59;;;;;;;61.98;27.37;;;;;;;-0.07;90.24;99833.08;1761996;81;25604;-71
2021/12/06 10:53:37;;;;;;;65.28;29.60;;;;;;;-0.08;90.22;99837.60;1742820;82;25410;-71
2021/12/06 10:56:03;;;;;;;68.02;27.93;;;;;;;-0.07;90.29;99835.73;1742491;82;27568;-71
2021/12/06 10:58:32;;;;;;;60.55;28.07;;;;;;;-0.10;90.21;99833.06;1750876;82;25552;-71
2021/12/06 11:01:12;;;;;;;57.27;26.42;;;;;;;-0.13;89.96;99840.73;1751070;82;25202;-72
2021/12/06 11:03:47;;;;;;;59.18;27.05;;;;;;;-0.16;89.87;99848.67;1749378;82;25466;-71
2021/12/06 11:06:25;;;;;;;55.12;26.10;;;;;;;-0.19;90.04;99846.50;1750974;82;25487;-70
2021/12/06 11:08:56;;;;;;;63.50;27.58;;;;;;;-0.20;90.04;99852.35;1751023;82;27635;-71
2021/12/06 11:11:36;;;;;;;63.73;28.83;;;;;;;-0.23;89.98;99854.17;1750988;82;25868;-71
2021/12/06 11:14:08;;;;;;;52.90;27.00;;;;;;;-0.23;89.99;99844.87;1750673;81;25663;-69
2021/12/06 11:16:42;;;;;;;59.10;26.55;;;;;;;-0.25;89.98;99844.32;1751001;82;26179;-69
2021/12/06 11:19:17;;;;;;;61.15;26.65;;;;;;;-0.26;90.02;99842.70;1749820;82;25399;-70
2021/12/06 11:21:52;;;;;;;61.83;27.35;;;;;;;-0.26;90.12;99848.55;1750925;82;27459;-70
2021/12/06 11:24:29;;;;;;;63.55;28.92;;;;;;;-0.27;90.16;99846.43;1745737;82;25519;-70
2021/12/06 11:27:04;;;;;;;68.22;28.77;;;;;;;-0.26;90.29;99845.36;1745611;82;25436;-70
2021/12/06 11:29:39;;;;;;;70.75;29.40;;;;;;;-0.24;90.34;99834.48;1745795;82;25653;-70
2021/12/06 11:32:31;;;;;;;61.85;28.55;;;;;;;-0.23;90.42;99835.56;1746176;82;25656;-70
2021/12/06 11:35:06;;;;;;;67.97;29.40;;;;;;;-0.21;90.50;99833.99;1745661;82;27498;-69
2021/12/06 11:37:40;;;;;;;69.15;28.95;;;;;;;-0.18;90.45;99834.03;1745149;82;25550;-71
2021/12/06 11:40:17;;;;;;;70.60;27.15;;;;;;;-0.20;90.29;99839.06;1745061;82;25679;-70
2021/12/06 11:43:07;;;;;;;66.53;28.10;;;;;;;-0.21;90.18;99844.62;1744903;82;26397;-70
2021/12/06 11:45:57;;;;;;;57.80;26.82;;;;;;;-0.23;90.03;99838.76;1745153;82;25415;-71
2021/12/06 11:48:29;;;;;;;66.42;28.75;;;;;;;-0.26;89.99;99846.69;1745199;82;27480;-69